createdAt,value
2019-06-07T09:38:24.733Z,1015.64
2019-06-07T09:39:16.050Z,1015.55
2019-06-07T09:40:38.912Z,1015.54
2019-06-07T09:41:47.578Z,1015.59
2019-06-07T09:42:39.929Z,1015.63
2019-06-07T09:44:05.327Z,1015.60
2019-06-07T09:44:39.934Z,1015.60
2019-06-07T09:45:38.981Z,1015.52
2019-06-07T09:46:38.993Z,1015.59
2019-06-07T09:47:38.972Z,1015.60
2019-06-07T09:49:39.965Z,1015.57
2019-06-07T09:50:38.984Z,1015.51
2019-06-07T09:51:38.989Z,1015.55
2019-06-07T09:52:56.958Z,1015.60
2019-06-07T09:53:40.007Z,1015.61
2019-06-07T09:55:40.005Z,1015.62
2019-06-07T10:05:33.359Z,1015.50
2019-06-07T10:06:33.262Z,1015.55
2019-06-07T10:14:53.884Z,1015.55
2019-06-07T10:16:48.040Z,1015.44
2019-06-07T10:19:51.600Z,1015.39
2019-06-07T10:20:51.510Z,1015.33
2019-06-07T10:22:51.234Z,1015.38
2019-06-07T10:23:51.245Z,1015.42
2019-06-07T10:24:51.225Z,1015.40
2019-06-07T10:25:51.232Z,1015.42
2019-06-07T10:26:51.235Z,1015.39
2019-06-07T10:27:51.232Z,1015.46
2019-06-07T10:28:53.545Z,1015.33
2019-06-07T10:29:51.211Z,1015.43
2019-06-07T10:52:07.907Z,1015.21
2019-06-07T10:53:02.375Z,1015.22
2019-06-07T10:53:42.839Z,1015.24
2019-06-07T10:54:42.817Z,1015.19
2019-06-07T10:55:42.815Z,1015.15
2019-06-07T10:56:42.804Z,1015.05
2019-06-07T10:57:42.784Z,1015.07
2019-06-07T10:58:42.790Z,1015.10
2019-06-07T10:59:42.768Z,1015.02
2019-06-07T11:00:42.816Z,1015.07
2019-06-07T11:01:42.748Z,1015.06
2019-06-07T11:02:42.726Z,1014.96
2019-06-07T11:03:42.725Z,1014.98
2019-06-07T11:04:42.714Z,1014.96
2019-06-07T11:05:42.705Z,1015.05
2019-06-07T11:06:42.692Z,1014.95
2019-06-07T11:07:42.677Z,1015.05
2019-06-07T11:08:42.669Z,1015.01
2019-06-07T11:09:42.645Z,1015.01
2019-06-07T11:10:42.636Z,1015.05
2019-06-07T11:11:42.624Z,1015.00
2019-06-07T11:12:42.612Z,1014.97
2019-06-07T11:13:42.615Z,1014.97
2019-06-07T11:14:42.599Z,1015.00
2019-06-07T11:15:42.589Z,1014.97
2019-06-07T11:16:42.573Z,1014.98
2019-06-07T11:17:42.555Z,1014.91
2019-06-07T11:18:42.544Z,1014.90
2019-06-07T11:19:42.535Z,1014.96
2019-06-07T11:20:42.550Z,1014.97
2019-06-07T11:21:42.549Z,1014.92
2019-06-07T11:22:42.510Z,1014.94
2019-06-07T11:23:42.500Z,1014.94
2019-06-07T11:24:42.481Z,1014.96
2019-06-07T11:25:42.468Z,1014.94
2019-06-07T11:26:42.474Z,1014.97
2019-06-07T11:27:42.443Z,1014.90
2019-06-07T11:28:42.447Z,1014.91
2019-06-07T11:29:42.418Z,1014.89
2019-06-07T11:30:42.409Z,1014.90
2019-06-07T11:31:42.395Z,1014.89
2019-06-07T11:32:42.389Z,1014.89
2019-06-07T11:33:42.374Z,1014.85
2019-06-07T11:34:42.380Z,1014.88
2019-06-07T11:35:42.350Z,1014.83
2019-06-07T11:36:42.350Z,1014.83
2019-06-07T11:37:42.342Z,1014.84
2019-06-07T11:38:42.347Z,1014.82
2019-06-07T11:39:42.316Z,1014.84
2019-06-07T11:40:42.321Z,1014.87
2019-06-07T11:41:42.298Z,1014.82
2019-06-07T11:42:42.312Z,1014.79
2019-06-07T11:43:42.262Z,1014.86
2019-06-07T11:44:35.189Z,1014.78
2019-06-07T11:45:35.181Z,1014.81
2019-06-07T11:46:35.173Z,1014.79
2019-06-07T11:47:35.174Z,1014.73
2019-06-07T15:41:23.627Z,101377.23
2019-06-07T15:42:23.545Z,101376.92
2019-06-07T15:43:33.040Z,101379.39
2019-06-07T15:46:26.886Z,101388.89
2019-06-07T15:53:19.210Z,101381.28
